Terminal Aerodrome Forecast
Issued by NWS

Home | Current Version | Previous Version | Graphics & Text | Print | Product List | Glossary On
Versions: 1 2 3 4 5 6 7 8 9 10 11 12 13 14 15 16 17
000
FTUS41 KCLE 182300
TAFFDY
TAF
KFDY 182340Z 1900/1924 32008KT P6SM SCT025 OVC035
      TEMPO 1900/1904 BKN025
     FM190600 32005KT P6SM BKN035
     FM191400 26007KT P6SM SCT035=

USA.gov is the U.S. government's official web portal to all federal, state and local government web resources and services.